Terminal Aerodrome Forecast
Issued by NWS Wilmington, OH

Current Version | Previous Version | Text Only | Print | Product List | Glossary Off
Versions: 1 2 3 4 5 6 7 8 9 10 11 12 13 14 15 16 17 18 19 20 21 22 23 24 25 26

000
FTUS41 KILN 210800 AAA
TAFDAY
TAF AMD
KDAY 210858Z 2109/2206 21006KT P6SM VCTS BKN050CB OVC120
     FM211200 22006KT P6SM -SHRA VCTS OVC050CB
      TEMPO 2112/2116 3SM -TSRA BR OVC025CB
     FM211600 23010KT P6SM VCSH SCT050 BKN100
     FM220000 22006KT P6SM SCT100 BKN150=

USA.gov is the U.S. government's official web portal to all federal, state and local government web resources and services.